sensor_id;sensor_type;location;lat;lon;timestamp;P1;durP1;ratioP1;P2;durP2;ratioP2
1452;SDS011;720;47.738;7.998;2024-01-30T00:01:38;2.40;;;1.23;;
1452;SDS011;720;47.738;7.998;2024-01-30T00:04:03;3.97;;;1.50;;
1452;SDS011;720;47.738;7.998;2024-01-30T00:06:29;3.50;;;1.40;;
1452;SDS011;720;47.738;7.998;2024-01-30T00:08:55;1.13;;;1.00;;
1452;SDS011;720;47.738;7.998;2024-01-30T00:11:20;1.33;;;1.23;;
1452;SDS011;720;47.738;7.998;2024-01-30T00:13:46;0.80;;;0.80;;
1452;SDS011;720;47.738;7.998;2024-01-30T00:16:21;3.00;;;1.30;;
1452;SDS011;720;47.738;7.998;2024-01-30T00:18:49;1.60;;;1.50;;
1452;SDS011;720;47.738;7.998;2024-01-30T00:21:18;2.13;;;1.05;;
1452;SDS011;720;47.738;7.998;2024-01-30T00:23:44;0.93;;;0.73;;
1452;SDS011;720;47.738;7.998;2024-01-30T00:26:10;1.00;;;1.00;;
1452;SDS011;720;47.738;7.998;2024-01-30T00:28:36;1.58;;;1.00;;
1452;SDS011;720;47.738;7.998;2024-01-30T00:31:05;2.00;;;1.10;;
1452;SDS011;720;47.738;7.998;2024-01-30T00:33:31;2.80;;;1.10;;
1452;SDS011;720;47.738;7.998;2024-01-30T00:35:56;1.00;;;1.00;;
1452;SDS011;720;47.738;7.998;2024-01-30T00:38:22;1.30;;;1.10;;
1452;SDS011;720;47.738;7.998;2024-01-30T00:40:48;1.17;;;1.07;;
1452;SDS011;720;47.738;7.998;2024-01-30T00:43:14;0.80;;;0.80;;
1452;SDS011;720;47.738;7.998;2024-01-30T00:45:41;4.75;;;1.35;;
1452;SDS011;720;47.738;7.998;2024-01-30T00:48:06;1.37;;;1.00;;
1452;SDS011;720;47.738;7.998;2024-01-30T00:50:32;3.57;;;1.17;;
1452;SDS011;720;47.738;7.998;2024-01-30T00:52:58;1.33;;;1.03;;
1452;SDS011;720;47.738;7.998;2024-01-30T00:55:23;1.10;;;1.00;;
1452;SDS011;720;47.738;7.998;2024-01-30T00:57:49;1.80;;;1.30;;
1452;SDS011;720;47.738;7.998;2024-01-30T01:00:14;1.10;;;1.00;;
1452;SDS011;720;47.738;7.998;2024-01-30T01:02:43;1.05;;;0.95;;
1452;SDS011;720;47.738;7.998;2024-01-30T01:05:09;0.90;;;0.88;;
1452;SDS011;720;47.738;7.998;2024-01-30T01:07:35;1.30;;;1.07;;
1452;SDS011;720;47.738;7.998;2024-01-30T01:10:01;1.40;;;1.30;;
1452;SDS011;720;47.738;7.998;2024-01-30T01:12:27;0.88;;;0.88;;
1452;SDS011;720;47.738;7.998;2024-01-30T01:14:53;1.80;;;1.10;;
1452;SDS011;720;47.738;7.998;2024-01-30T01:17:18;1.57;;;1.33;;
1452;SDS011;720;47.738;7.998;2024-01-30T01:19:44;2.03;;;0.97;;
1452;SDS011;720;47.738;7.998;2024-01-30T01:22:10;4.00;;;1.00;;
1452;SDS011;720;47.738;7.998;2024-01-30T01:24:36;1.30;;;0.90;;
1452;SDS011;720;47.738;7.998;2024-01-30T01:27:01;3.70;;;1.33;;
1452;SDS011;720;47.738;7.998;2024-01-30T01:29:27;1.17;;;0.80;;
1452;SDS011;720;47.738;7.998;2024-01-30T01:31:57;0.90;;;0.90;;
1452;SDS011;720;47.738;7.998;2024-01-30T01:34:23;1.23;;;1.13;;
1452;SDS011;720;47.738;7.998;2024-01-30T01:36:49;0.70;;;0.70;;
1452;SDS011;720;47.738;7.998;2024-01-30T01:39:16;0.90;;;0.90;;
1452;SDS011;720;47.738;7.998;2024-01-30T01:41:42;1.40;;;0.93;;
1452;SDS011;720;47.738;7.998;2024-01-30T01:44:08;0.80;;;0.70;;
1452;SDS011;720;47.738;7.998;2024-01-30T01:46:34;1.10;;;1.00;;
1452;SDS011;720;47.738;7.998;2024-01-30T01:49:00;0.88;;;0.88;;
1452;SDS011;720;47.738;7.998;2024-01-30T01:51:27;1.60;;;0.68;;
1452;SDS011;720;47.738;7.998;2024-01-30T01:53:56;1.05;;;1.05;;
1452;SDS011;720;47.738;7.998;2024-01-30T01:56:23;2.20;;;1.13;;
1452;SDS011;720;47.738;7.998;2024-01-30T01:58:50;1.10;;;1.00;;
1452;SDS011;720;47.738;7.998;2024-01-30T02:01:19;0.88;;;0.80;;
1452;SDS011;720;47.738;7.998;2024-01-30T02:03:45;1.13;;;1.02;;
1452;SDS011;720;47.738;7.998;2024-01-30T02:06:11;1.50;;;1.40;;
1452;SDS011;720;47.738;7.998;2024-01-30T02:08:39;3.10;;;1.15;;
1452;SDS011;720;47.738;7.998;2024-01-30T02:11:05;1.07;;;0.90;;
1452;SDS011;720;47.738;7.998;2024-01-30T02:13:31;0.90;;;0.90;;
1452;SDS011;720;47.738;7.998;2024-01-30T02:15:57;1.07;;;0.93;;
1452;SDS011;720;47.738;7.998;2024-01-30T02:18:22;0.87;;;0.87;;
1452;SDS011;720;47.738;7.998;2024-01-30T02:20:48;1.10;;;0.93;;
1452;SDS011;720;47.738;7.998;2024-01-30T02:23:15;1.98;;;1.85;;
1452;SDS011;720;47.738;7.998;2024-01-30T02:25:42;3.20;;;0.80;;
1452;SDS011;720;47.738;7.998;2024-01-30T02:28:13;1.45;;;1.35;;
1452;SDS011;720;47.738;7.998;2024-01-30T02:30:39;0.80;;;0.80;;
1452;SDS011;720;47.738;7.998;2024-01-30T02:33:05;1.10;;;0.98;;
1452;SDS011;720;47.738;7.998;2024-01-30T02:35:31;1.23;;;1.00;;
1452;SDS011;720;47.738;7.998;2024-01-30T02:37:58;1.27;;;1.20;;
1452;SDS011;720;47.738;7.998;2024-01-30T02:40:24;0.90;;;0.90;;
1452;SDS011;720;47.738;7.998;2024-01-30T02:42:49;0.83;;;0.83;;
1452;SDS011;720;47.738;7.998;2024-01-30T02:45:15;1.20;;;1.07;;
1452;SDS011;720;47.738;7.998;2024-01-30T02:47:41;1.63;;;0.77;;
1452;SDS011;720;47.738;7.998;2024-01-30T02:50:07;1.00;;;0.90;;
1452;SDS011;720;47.738;7.998;2024-01-30T02:52:33;2.50;;;1.20;;
1452;SDS011;720;47.738;7.998;2024-01-30T02:55:00;1.85;;;1.20;;
1452;SDS011;720;47.738;7.998;2024-01-30T02:57:26;1.48;;;1.10;;
1452;SDS011;720;47.738;7.998;2024-01-30T02:59:53;2.85;;;1.20;;
1452;SDS011;720;47.738;7.998;2024-01-30T03:02:18;1.00;;;1.00;;
1452;SDS011;720;47.738;7.998;2024-01-30T03:04:44;0.82;;;0.82;;
1452;SDS011;720;47.738;7.998;2024-01-30T03:07:10;1.07;;;0.97;;
1452;SDS011;720;47.738;7.998;2024-01-30T03:09:36;1.43;;;1.33;;
1452;SDS011;720;47.738;7.998;2024-01-30T03:12:02;1.53;;;1.43;;
1452;SDS011;720;47.738;7.998;2024-01-30T03:14:30;1.30;;;1.05;;
1452;SDS011;720;47.738;7.998;2024-01-30T03:16:56;1.02;;;0.90;;
1452;SDS011;720;47.738;7.998;2024-01-30T03:19:22;0.82;;;0.82;;
1452;SDS011;720;47.738;7.998;2024-01-30T03:21:48;1.10;;;1.10;;
1452;SDS011;720;47.738;7.998;2024-01-30T03:24:14;0.80;;;0.80;;
1452;SDS011;720;47.738;7.998;2024-01-30T03:26:39;2.10;;;1.10;;
1452;SDS011;720;47.738;7.998;2024-01-30T03:29:05;2.80;;;1.20;;
1452;SDS011;720;47.738;7.998;2024-01-30T03:31:31;0.85;;;0.82;;
1452;SDS011;720;47.738;7.998;2024-01-30T03:33:57;2.20;;;1.50;;
1452;SDS011;720;47.738;7.998;2024-01-30T03:36:23;1.33;;;0.70;;
1452;SDS011;720;47.738;7.998;2024-01-30T03:38:48;2.93;;;1.47;;
1452;SDS011;720;47.738;7.998;2024-01-30T03:41:14;1.23;;;1.07;;
1452;SDS011;720;47.738;7.998;2024-01-30T03:43:40;1.30;;;1.20;;
1452;SDS011;720;47.738;7.998;2024-01-30T03:46:06;0.77;;;0.77;;
1452;SDS011;720;47.738;7.998;2024-01-30T03:48:32;2.03;;;1.33;;
1452;SDS011;720;47.738;7.998;2024-01-30T03:50:57;1.13;;;0.97;;
1452;SDS011;720;47.738;7.998;2024-01-30T03:53:23;0.70;;;0.70;;
1452;SDS011;720;47.738;7.998;2024-01-30T03:55:48;1.20;;;1.10;;
1452;SDS011;720;47.738;7.998;2024-01-30T03:58:14;3.03;;;1.00;;
1452;SDS011;720;47.738;7.998;2024-01-30T04:00:40;1.30;;;1.13;;
1452;SDS011;720;47.738;7.998;2024-01-30T04:03:06;2.10;;;1.10;;
1452;SDS011;720;47.738;7.998;2024-01-30T04:05:32;1.33;;;1.23;;
1452;SDS011;720;47.738;7.998;2024-01-30T04:07:57;1.97;;;1.50;;
1452;SDS011;720;47.738;7.998;2024-01-30T04:10:23;1.10;;;0.80;;
1452;SDS011;720;47.738;7.998;2024-01-30T04:12:50;0.80;;;0.80;;
1452;SDS011;720;47.738;7.998;2024-01-30T04:15:16;6.13;;;1.65;;
1452;SDS011;720;47.738;7.998;2024-01-30T04:17:42;2.23;;;1.93;;
1452;SDS011;720;47.738;7.998;2024-01-30T04:20:09;1.27;;;0.90;;
1452;SDS011;720;47.738;7.998;2024-01-30T04:22:43;5.35;;;1.25;;
1452;SDS011;720;47.738;7.998;2024-01-30T04:25:10;1.02;;;0.93;;
1452;SDS011;720;47.738;7.998;2024-01-30T04:27:36;1.20;;;1.08;;
1452;SDS011;720;47.738;7.998;2024-01-30T04:30:01;1.60;;;1.17;;
1452;SDS011;720;47.738;7.998;2024-01-30T04:32:27;1.27;;;1.20;;
1452;SDS011;720;47.738;7.998;2024-01-30T04:34:53;2.77;;;2.57;;
1452;SDS011;720;47.738;7.998;2024-01-30T04:37:18;2.50;;;2.30;;
1452;SDS011;720;47.738;7.998;2024-01-30T04:39:44;1.80;;;1.53;;
1452;SDS011;720;47.738;7.998;2024-01-30T04:42:09;2.87;;;1.80;;
1452;SDS011;720;47.738;7.998;2024-01-30T04:44:35;1.87;;;1.40;;
1452;SDS011;720;47.738;7.998;2024-01-30T04:47:01;1.52;;;1.42;;
1452;SDS011;720;47.738;7.998;2024-01-30T04:49:27;1.33;;;1.23;;
1452;SDS011;720;47.738;7.998;2024-01-30T04:51:54;1.20;;;1.10;;
1452;SDS011;720;47.738;7.998;2024-01-30T04:54:20;1.23;;;1.13;;
1452;SDS011;720;47.738;7.998;2024-01-30T04:56:46;2.03;;;1.23;;
1452;SDS011;720;47.738;7.998;2024-01-30T04:59:11;1.07;;;1.07;;
1452;SDS011;720;47.738;7.998;2024-01-30T05:01:37;1.77;;;1.40;;
1452;SDS011;720;47.738;7.998;2024-01-30T05:04:03;1.63;;;1.47;;
1452;SDS011;720;47.738;7.998;2024-01-30T05:06:28;1.40;;;1.30;;
1452;SDS011;720;47.738;7.998;2024-01-30T05:08:54;1.57;;;1.20;;
1452;SDS011;720;47.738;7.998;2024-01-30T05:11:20;2.03;;;1.00;;
1452;SDS011;720;47.738;7.998;2024-01-30T05:13:46;1.60;;;1.50;;
1452;SDS011;720;47.738;7.998;2024-01-30T05:16:12;2.07;;;1.73;;
1452;SDS011;720;47.738;7.998;2024-01-30T05:18:38;3.42;;;1.33;;
1452;SDS011;720;47.738;7.998;2024-01-30T05:21:04;1.00;;;1.00;;
1452;SDS011;720;47.738;7.998;2024-01-30T05:23:30;1.80;;;1.70;;
1452;SDS011;720;47.738;7.998;2024-01-30T05:25:56;1.17;;;1.00;;
1452;SDS011;720;47.738;7.998;2024-01-30T05:28:21;1.07;;;1.07;;
1452;SDS011;720;47.738;7.998;2024-01-30T05:30:47;1.90;;;0.80;;
1452;SDS011;720;47.738;7.998;2024-01-30T05:33:12;1.50;;;0.90;;
1452;SDS011;720;47.738;7.998;2024-01-30T05:35:38;1.87;;;1.60;;
1452;SDS011;720;47.738;7.998;2024-01-30T05:38:04;1.37;;;1.10;;
1452;SDS011;720;47.738;7.998;2024-01-30T05:40:32;1.23;;;1.13;;
1452;SDS011;720;47.738;7.998;2024-01-30T05:42:58;1.52;;;1.02;;
1452;SDS011;720;47.738;7.998;2024-01-30T05:45:26;1.30;;;1.20;;
1452;SDS011;720;47.738;7.998;2024-01-30T05:47:52;2.25;;;1.30;;
1452;SDS011;720;47.738;7.998;2024-01-30T05:50:18;1.42;;;1.33;;
1452;SDS011;720;47.738;7.998;2024-01-30T05:52:44;1.50;;;1.40;;
1452;SDS011;720;47.738;7.998;2024-01-30T05:55:10;2.00;;;1.47;;
1452;SDS011;720;47.738;7.998;2024-01-30T05:57:37;2.25;;;1.02;;
1452;SDS011;720;47.738;7.998;2024-01-30T06:00:03;2.03;;;1.20;;
1452;SDS011;720;47.738;7.998;2024-01-30T06:02:30;2.05;;;1.25;;
1452;SDS011;720;47.738;7.998;2024-01-30T06:04:56;3.53;;;1.20;;
1452;SDS011;720;47.738;7.998;2024-01-30T06:07:21;1.30;;;1.23;;
1452;SDS011;720;47.738;7.998;2024-01-30T06:09:47;2.10;;;1.43;;
1452;SDS011;720;47.738;7.998;2024-01-30T06:12:13;0.93;;;0.93;;
1452;SDS011;720;47.738;7.998;2024-01-30T06:14:38;4.27;;;1.77;;
1452;SDS011;720;47.738;7.998;2024-01-30T06:17:04;1.13;;;1.07;;
1452;SDS011;720;47.738;7.998;2024-01-30T06:19:30;1.13;;;1.03;;
1452;SDS011;720;47.738;7.998;2024-01-30T06:21:56;3.80;;;1.30;;
1452;SDS011;720;47.738;7.998;2024-01-30T06:24:21;1.20;;;1.10;;
1452;SDS011;720;47.738;7.998;2024-01-30T06:26:47;1.13;;;0.93;;
1452;SDS011;720;47.738;7.998;2024-01-30T06:29:12;1.97;;;1.23;;
1452;SDS011;720;47.738;7.998;2024-01-30T06:31:40;1.60;;;1.50;;
1452;SDS011;720;47.738;7.998;2024-01-30T06:34:06;2.22;;;0.95;;
1452;SDS011;720;47.738;7.998;2024-01-30T06:36:33;1.73;;;0.98;;
1452;SDS011;720;47.738;7.998;2024-01-30T06:38:58;2.10;;;1.10;;
1452;SDS011;720;47.738;7.998;2024-01-30T06:41:24;3.13;;;0.93;;
1452;SDS011;720;47.738;7.998;2024-01-30T06:43:50;1.20;;;0.90;;
1452;SDS011;720;47.738;7.998;2024-01-30T06:46:15;1.00;;;0.93;;
1452;SDS011;720;47.738;7.998;2024-01-30T06:48:41;2.20;;;1.43;;
1452;SDS011;720;47.738;7.998;2024-01-30T06:51:09;1.70;;;1.60;;
1452;SDS011;720;47.738;7.998;2024-01-30T06:53:35;1.90;;;1.80;;
1452;SDS011;720;47.738;7.998;2024-01-30T06:56:01;1.20;;;1.20;;
1452;SDS011;720;47.738;7.998;2024-01-30T06:58:27;1.90;;;1.80;;
1452;SDS011;720;47.738;7.998;2024-01-30T07:00:53;1.33;;;1.10;;
1452;SDS011;720;47.738;7.998;2024-01-30T07:03:19;2.05;;;1.52;;
1452;SDS011;720;47.738;7.998;2024-01-30T07:05:44;6.70;;;1.30;;
1452;SDS011;720;47.738;7.998;2024-01-30T07:08:10;1.70;;;1.60;;
1452;SDS011;720;47.738;7.998;2024-01-30T07:10:36;1.40;;;1.30;;
1452;SDS011;720;47.738;7.998;2024-01-30T07:13:02;1.65;;;1.55;;
1452;SDS011;720;47.738;7.998;2024-01-30T07:15:30;1.85;;;1.50;;
1452;SDS011;720;47.738;7.998;2024-01-30T07:17:57;0.98;;;0.95;;
1452;SDS011;720;47.738;7.998;2024-01-30T07:20:22;1.10;;;1.00;;
1452;SDS011;720;47.738;7.998;2024-01-30T07:22:48;0.82;;;0.77;;
1452;SDS011;720;47.738;7.998;2024-01-30T07:25:14;1.00;;;0.90;;
1452;SDS011;720;47.738;7.998;2024-01-30T07:27:41;0.98;;;0.98;;
1452;SDS011;720;47.738;7.998;2024-01-30T07:30:07;1.00;;;1.00;;
1452;SDS011;720;47.738;7.998;2024-01-30T07:32:33;1.97;;;1.40;;
1452;SDS011;720;47.738;7.998;2024-01-30T07:34:58;1.83;;;1.70;;
1452;SDS011;720;47.738;7.998;2024-01-30T07:37:24;2.50;;;1.00;;
1452;SDS011;720;47.738;7.998;2024-01-30T07:39:50;1.53;;;1.43;;
1452;SDS011;720;47.738;7.998;2024-01-30T07:42:15;1.00;;;1.00;;
1452;SDS011;720;47.738;7.998;2024-01-30T07:44:42;2.00;;;1.90;;
1452;SDS011;720;47.738;7.998;2024-01-30T07:47:08;2.00;;;1.23;;
1452;SDS011;720;47.738;7.998;2024-01-30T07:49:34;1.20;;;1.10;;
1452;SDS011;720;47.738;7.998;2024-01-30T07:52:01;2.67;;;2.17;;
1452;SDS011;720;47.738;7.998;2024-01-30T07:54:27;2.20;;;1.30;;
1452;SDS011;720;47.738;7.998;2024-01-30T07:56:53;1.70;;;1.37;;
1452;SDS011;720;47.738;7.998;2024-01-30T07:59:19;1.43;;;1.33;;
1452;SDS011;720;47.738;7.998;2024-01-30T08:01:49;1.95;;;0.90;;
1452;SDS011;720;47.738;7.998;2024-01-30T08:04:15;1.53;;;1.43;;
1452;SDS011;720;47.738;7.998;2024-01-30T08:06:40;1.17;;;1.07;;
1452;SDS011;720;47.738;7.998;2024-01-30T08:09:08;1.60;;;1.50;;
1452;SDS011;720;47.738;7.998;2024-01-30T08:11:33;1.42;;;1.05;;
1452;SDS011;720;47.738;7.998;2024-01-30T08:13:59;2.37;;;1.80;;
1452;SDS011;720;47.738;7.998;2024-01-30T08:16:25;1.53;;;1.43;;
1452;SDS011;720;47.738;7.998;2024-01-30T08:18:50;1.90;;;1.80;;
1452;SDS011;720;47.738;7.998;2024-01-30T08:21:18;3.30;;;2.23;;
1452;SDS011;720;47.738;7.998;2024-01-30T08:23:43;2.47;;;2.27;;
1452;SDS011;720;47.738;7.998;2024-01-30T08:26:09;1.57;;;1.50;;
1452;SDS011;720;47.738;7.998;2024-01-30T08:28:35;3.83;;;2.00;;
1452;SDS011;720;47.738;7.998;2024-01-30T08:31:00;1.60;;;1.50;;
1452;SDS011;720;47.738;7.998;2024-01-30T08:33:26;1.90;;;1.80;;
1452;SDS011;720;47.738;7.998;2024-01-30T08:35:52;2.37;;;2.10;;
1452;SDS011;720;47.738;7.998;2024-01-30T08:38:18;2.53;;;1.87;;
1452;SDS011;720;47.738;7.998;2024-01-30T08:40:44;2.30;;;2.10;;
1452;SDS011;720;47.738;7.998;2024-01-30T08:43:10;3.43;;;2.30;;
1452;SDS011;720;47.738;7.998;2024-01-30T08:45:36;2.40;;;2.10;;
1452;SDS011;720;47.738;7.998;2024-01-30T08:48:01;3.00;;;2.23;;
1452;SDS011;720;47.738;7.998;2024-01-30T08:50:27;3.93;;;2.57;;
1452;SDS011;720;47.738;7.998;2024-01-30T08:52:53;3.53;;;3.20;;
1452;SDS011;720;47.738;7.998;2024-01-30T08:55:19;3.77;;;3.40;;
1452;SDS011;720;47.738;7.998;2024-01-30T08:57:44;11.50;;;6.10;;
1452;SDS011;720;47.738;7.998;2024-01-30T09:00:10;5.20;;;4.50;;
1452;SDS011;720;47.738;7.998;2024-01-30T09:02:37;6.70;;;4.40;;
1452;SDS011;720;47.738;7.998;2024-01-30T09:05:02;5.77;;;3.60;;
1452;SDS011;720;47.738;7.998;2024-01-30T09:07:28;5.90;;;4.23;;
1452;SDS011;720;47.738;7.998;2024-01-30T09:09:54;10.80;;;4.23;;
1452;SDS011;720;47.738;7.998;2024-01-30T09:12:19;4.80;;;4.27;;
1452;SDS011;720;47.738;7.998;2024-01-30T09:14:45;4.57;;;4.17;;
1452;SDS011;720;47.738;7.998;2024-01-30T09:17:11;9.70;;;4.83;;
1452;SDS011;720;47.738;7.998;2024-01-30T09:19:37;5.33;;;4.33;;
1452;SDS011;720;47.738;7.998;2024-01-30T09:22:03;8.70;;;4.33;;
1452;SDS011;720;47.738;7.998;2024-01-30T09:24:28;3.10;;;2.80;;
1452;SDS011;720;47.738;7.998;2024-01-30T09:26:54;5.97;;;4.13;;
1452;SDS011;720;47.738;7.998;2024-01-30T09:29:20;6.97;;;5.00;;
1452;SDS011;720;47.738;7.998;2024-01-30T09:31:46;4.40;;;4.00;;
1452;SDS011;720;47.738;7.998;2024-01-30T09:34:12;4.80;;;3.70;;
1452;SDS011;720;47.738;7.998;2024-01-30T09:36:38;6.30;;;5.70;;
1452;SDS011;720;47.738;7.998;2024-01-30T09:39:04;12.13;;;5.37;;
1452;SDS011;720;47.738;7.998;2024-01-30T09:41:32;3.20;;;2.63;;
1452;SDS011;720;47.738;7.998;2024-01-30T09:43:58;4.90;;;3.70;;
1452;SDS011;720;47.738;7.998;2024-01-30T09:46:26;4.27;;;3.70;;
1452;SDS011;720;47.738;7.998;2024-01-30T09:48:53;2.97;;;2.77;;
1452;SDS011;720;47.738;7.998;2024-01-30T09:51:20;3.60;;;3.30;;
1452;SDS011;720;47.738;7.998;2024-01-30T09:53:47;2.90;;;2.70;;
1452;SDS011;720;47.738;7.998;2024-01-30T09:56:14;9.90;;;2.67;;
1452;SDS011;720;47.738;7.998;2024-01-30T09:58:40;1.97;;;1.70;;
1452;SDS011;720;47.738;7.998;2024-01-30T10:01:06;1.57;;;1.00;;
1452;SDS011;720;47.738;7.998;2024-01-30T10:03:32;4.20;;;1.60;;
1452;SDS011;720;47.738;7.998;2024-01-30T10:05:58;2.10;;;1.90;;
1452;SDS011;720;47.738;7.998;2024-01-30T10:08:26;1.50;;;1.40;;
1452;SDS011;720;47.738;7.998;2024-01-30T10:10:51;4.30;;;1.83;;
1452;SDS011;720;47.738;7.998;2024-01-30T10:13:17;1.57;;;1.40;;
1452;SDS011;720;47.738;7.998;2024-01-30T10:15:44;2.03;;;1.93;;
1452;SDS011;720;47.738;7.998;2024-01-30T10:18:10;1.63;;;1.53;;
1452;SDS011;720;47.738;7.998;2024-01-30T10:20:36;2.20;;;1.97;;
1452;SDS011;720;47.738;7.998;2024-01-30T10:23:02;1.30;;;1.20;;
1452;SDS011;720;47.738;7.998;2024-01-30T10:25:28;1.90;;;1.80;;
1452;SDS011;720;47.738;7.998;2024-01-30T10:27:56;2.63;;;2.03;;
1452;SDS011;720;47.738;7.998;2024-01-30T10:30:22;2.17;;;1.90;;
1452;SDS011;720;47.738;7.998;2024-01-30T10:32:48;3.33;;;1.90;;
1452;SDS011;720;47.738;7.998;2024-01-30T10:35:14;1.53;;;1.40;;
1452;SDS011;720;47.738;7.998;2024-01-30T10:37:41;1.93;;;1.83;;
1452;SDS011;720;47.738;7.998;2024-01-30T10:40:09;1.27;;;1.17;;
1452;SDS011;720;47.738;7.998;2024-01-30T10:42:38;1.77;;;1.27;;
1452;SDS011;720;47.738;7.998;2024-01-30T10:47:46;2.00;;;1.33;;
1452;SDS011;720;47.738;7.998;2024-01-30T10:50:14;1.30;;;1.20;;
1452;SDS011;720;47.738;7.998;2024-01-30T10:52:41;1.00;;;0.93;;
1452;SDS011;720;47.738;7.998;2024-01-30T10:55:07;1.73;;;1.67;;
1452;SDS011;720;47.738;7.998;2024-01-30T10:57:36;3.10;;;1.20;;
1452;SDS011;720;47.738;7.998;2024-01-30T11:00:09;3.03;;;1.57;;
1452;SDS011;720;47.738;7.998;2024-01-30T11:02:40;2.57;;;1.97;;
1452;SDS011;720;47.738;7.998;2024-01-30T11:05:08;1.20;;;1.13;;
1452;SDS011;720;47.738;7.998;2024-01-30T11:07:34;0.90;;;0.90;;
1452;SDS011;720;47.738;7.998;2024-01-30T11:10:03;2.20;;;1.23;;
1452;SDS011;720;47.738;7.998;2024-01-30T11:12:30;1.30;;;1.20;;
1452;SDS011;720;47.738;7.998;2024-01-30T11:15:04;2.00;;;1.40;;
1452;SDS011;720;47.738;7.998;2024-01-30T11:17:40;1.93;;;1.80;;
1452;SDS011;720;47.738;7.998;2024-01-30T11:20:09;2.30;;;1.10;;
1452;SDS011;720;47.738;7.998;2024-01-30T11:22:56;2.07;;;1.03;;
1452;SDS011;720;47.738;7.998;2024-01-30T11:25:23;0.97;;;0.87;;
1452;SDS011;720;47.738;7.998;2024-01-30T11:27:53;0.90;;;0.90;;
1452;SDS011;720;47.738;7.998;2024-01-30T11:35:32;1.47;;;1.37;;
1452;SDS011;720;47.738;7.998;2024-01-30T11:37:59;1.40;;;1.30;;
1452;SDS011;720;47.738;7.998;2024-01-30T11:40:28;1.37;;;1.10;;
1452;SDS011;720;47.738;7.998;2024-01-30T11:42:55;1.20;;;1.10;;
1452;SDS011;720;47.738;7.998;2024-01-30T11:45:23;0.97;;;0.97;;
1452;SDS011;720;47.738;7.998;2024-01-30T11:47:48;1.07;;;1.07;;
1452;SDS011;720;47.738;7.998;2024-01-30T11:50:14;2.23;;;1.30;;
1452;SDS011;720;47.738;7.998;2024-01-30T11:52:40;3.00;;;2.67;;
1452;SDS011;720;47.738;7.998;2024-01-30T11:55:06;1.63;;;1.50;;
1452;SDS011;720;47.738;7.998;2024-01-30T11:57:33;1.03;;;0.83;;
1452;SDS011;720;47.738;7.998;2024-01-30T12:00:00;2.47;;;2.27;;
1452;SDS011;720;47.738;7.998;2024-01-30T12:02:26;1.40;;;1.30;;
1452;SDS011;720;47.738;7.998;2024-01-30T12:04:52;1.30;;;1.20;;
1452;SDS011;720;47.738;7.998;2024-01-30T12:07:17;1.13;;;1.13;;
1452;SDS011;720;47.738;7.998;2024-01-30T12:09:51;1.60;;;1.50;;
1452;SDS011;720;47.738;7.998;2024-01-30T12:12:19;1.47;;;1.17;;
1452;SDS011;720;47.738;7.998;2024-01-30T12:14:46;2.00;;;1.20;;
1452;SDS011;720;47.738;7.998;2024-01-30T12:17:22;2.17;;;1.70;;
1452;SDS011;720;47.738;7.998;2024-01-30T12:19:50;2.10;;;1.47;;
1452;SDS011;720;47.738;7.998;2024-01-30T12:22:15;1.77;;;1.20;;
1452;SDS011;720;47.738;7.998;2024-01-30T12:24:41;1.53;;;1.40;;
1452;SDS011;720;47.738;7.998;2024-01-30T12:27:07;3.67;;;1.27;;
1452;SDS011;720;47.738;7.998;2024-01-30T12:29:32;1.20;;;1.10;;
1452;SDS011;720;47.738;7.998;2024-01-30T12:31:58;1.63;;;1.40;;
1452;SDS011;720;47.738;7.998;2024-01-30T12:34:25;1.60;;;1.40;;
1452;SDS011;720;47.738;7.998;2024-01-30T12:36:50;1.63;;;1.37;;
1452;SDS011;720;47.738;7.998;2024-01-30T12:39:17;4.63;;;1.47;;
1452;SDS011;720;47.738;7.998;2024-01-30T12:41:43;7.40;;;1.63;;
1452;SDS011;720;47.738;7.998;2024-01-30T12:44:09;1.40;;;1.30;;
1452;SDS011;720;47.738;7.998;2024-01-30T12:46:34;1.60;;;1.50;;
1452;SDS011;720;47.738;7.998;2024-01-30T12:49:00;1.20;;;1.10;;
1452;SDS011;720;47.738;7.998;2024-01-30T12:51:26;2.07;;;1.63;;
1452;SDS011;720;47.738;7.998;2024-01-30T12:53:51;1.67;;;1.57;;
1452;SDS011;720;47.738;7.998;2024-01-30T12:56:17;1.90;;;1.67;;
1452;SDS011;720;47.738;7.998;2024-01-30T12:58:43;1.97;;;1.83;;
1452;SDS011;720;47.738;7.998;2024-01-30T13:01:09;1.43;;;1.33;;
1452;SDS011;720;47.738;7.998;2024-01-30T13:03:35;4.40;;;1.90;;
1452;SDS011;720;47.738;7.998;2024-01-30T13:06:00;1.87;;;1.57;;
1452;SDS011;720;47.738;7.998;2024-01-30T13:08:26;3.47;;;1.60;;
1452;SDS011;720;47.738;7.998;2024-01-30T13:10:52;1.60;;;1.50;;
1452;SDS011;720;47.738;7.998;2024-01-30T13:13:17;1.53;;;1.43;;
1452;SDS011;720;47.738;7.998;2024-01-30T13:15:43;1.50;;;1.40;;
1452;SDS011;720;47.738;7.998;2024-01-30T13:18:09;1.30;;;1.20;;
1452;SDS011;720;47.738;7.998;2024-01-30T13:20:35;1.53;;;1.33;;
1452;SDS011;720;47.738;7.998;2024-01-30T13:23:01;1.67;;;1.57;;
1452;SDS011;720;47.738;7.998;2024-01-30T13:25:26;2.60;;;1.40;;
1452;SDS011;720;47.738;7.998;2024-01-30T13:27:52;1.10;;;1.10;;
1452;SDS011;720;47.738;7.998;2024-01-30T13:30:18;1.50;;;1.13;;
1452;SDS011;720;47.738;7.998;2024-01-30T13:32:44;1.50;;;1.37;;
1452;SDS011;720;47.738;7.998;2024-01-30T13:35:10;1.53;;;1.43;;
1452;SDS011;720;47.738;7.998;2024-01-30T13:37:35;1.40;;;1.30;;
1452;SDS011;720;47.738;7.998;2024-01-30T13:40:02;2.30;;;1.40;;
1452;SDS011;720;47.738;7.998;2024-01-30T13:42:32;1.43;;;1.20;;
1452;SDS011;720;47.738;7.998;2024-01-30T13:44:57;1.10;;;1.00;;
1452;SDS011;720;47.738;7.998;2024-01-30T13:47:23;3.67;;;2.23;;
1452;SDS011;720;47.738;7.998;2024-01-30T13:49:49;1.37;;;1.20;;
1452;SDS011;720;47.738;7.998;2024-01-30T13:52:14;1.37;;;1.27;;
1452;SDS011;720;47.738;7.998;2024-01-30T13:54:40;1.80;;;1.37;;
1452;SDS011;720;47.738;7.998;2024-01-30T13:57:06;2.10;;;1.70;;
1452;SDS011;720;47.738;7.998;2024-01-30T13:59:33;2.30;;;1.77;;
1452;SDS011;720;47.738;7.998;2024-01-30T14:01:59;1.47;;;1.33;;
1452;SDS011;720;47.738;7.998;2024-01-30T14:04:24;2.10;;;1.67;;
1452;SDS011;720;47.738;7.998;2024-01-30T14:06:50;1.43;;;1.33;;
1452;SDS011;720;47.738;7.998;2024-01-30T14:09:16;3.00;;;1.57;;
1452;SDS011;720;47.738;7.998;2024-01-30T14:11:41;1.47;;;1.37;;
1452;SDS011;720;47.738;7.998;2024-01-30T14:14:07;2.30;;;1.40;;
1452;SDS011;720;47.738;7.998;2024-01-30T14:16:33;1.97;;;1.60;;
1452;SDS011;720;47.738;7.998;2024-01-30T14:18:59;2.10;;;1.83;;
1452;SDS011;720;47.738;7.998;2024-01-30T14:21:25;2.63;;;2.17;;
1452;SDS011;720;47.738;7.998;2024-01-30T14:23:50;1.57;;;1.47;;
1452;SDS011;720;47.738;7.998;2024-01-30T14:26:16;2.10;;;1.70;;
1452;SDS011;720;47.738;7.998;2024-01-30T14:28:42;1.80;;;1.50;;
1452;SDS011;720;47.738;7.998;2024-01-30T14:31:08;1.30;;;1.20;;
1452;SDS011;720;47.738;7.998;2024-01-30T14:33:34;1.23;;;1.13;;
1452;SDS011;720;47.738;7.998;2024-01-30T14:35:59;1.77;;;1.40;;
1452;SDS011;720;47.738;7.998;2024-01-30T14:38:25;3.30;;;1.83;;
1452;SDS011;720;47.738;7.998;2024-01-30T14:40:51;2.43;;;1.60;;
1452;SDS011;720;47.738;7.998;2024-01-30T14:43:16;1.73;;;1.63;;
1452;SDS011;720;47.738;7.998;2024-01-30T14:45:42;2.40;;;1.33;;
1452;SDS011;720;47.738;7.998;2024-01-30T14:48:10;1.80;;;1.60;;
1452;SDS011;720;47.738;7.998;2024-01-30T14:50:36;2.67;;;1.77;;
1452;SDS011;720;47.738;7.998;2024-01-30T14:53:02;1.63;;;1.53;;
1452;SDS011;720;47.738;7.998;2024-01-30T14:55:28;1.67;;;1.40;;
1452;SDS011;720;47.738;7.998;2024-01-30T14:57:54;3.67;;;1.50;;
1452;SDS011;720;47.738;7.998;2024-01-30T15:00:20;1.00;;;0.90;;
1452;SDS011;720;47.738;7.998;2024-01-30T15:02:45;1.30;;;1.20;;
1452;SDS011;720;47.738;7.998;2024-01-30T15:05:11;2.80;;;1.23;;
1452;SDS011;720;47.738;7.998;2024-01-30T15:07:37;2.43;;;2.23;;
1452;SDS011;720;47.738;7.998;2024-01-30T15:10:04;5.00;;;1.73;;
1452;SDS011;720;47.738;7.998;2024-01-30T15:12:30;1.50;;;1.40;;
1452;SDS011;720;47.738;7.998;2024-01-30T15:14:55;2.27;;;1.97;;
1452;SDS011;720;47.738;7.998;2024-01-30T15:17:21;1.50;;;1.40;;
1452;SDS011;720;47.738;7.998;2024-01-30T15:19:47;2.20;;;1.60;;
1452;SDS011;720;47.738;7.998;2024-01-30T15:22:13;1.67;;;1.57;;
1452;SDS011;720;47.738;7.998;2024-01-30T15:24:38;1.83;;;1.50;;
1452;SDS011;720;47.738;7.998;2024-01-30T15:27:04;1.50;;;1.50;;
1452;SDS011;720;47.738;7.998;2024-01-30T15:29:30;1.50;;;1.40;;
1452;SDS011;720;47.738;7.998;2024-01-30T15:31:56;2.20;;;1.47;;